sensor_id;sensor_type;location;lat;lon;timestamp;temperature;humidity
75994;DHT22;64680;53.800;9.988;2023-04-25T00:02:25;6.70;71.20
75994;DHT22;64680;53.800;9.988;2023-04-25T00:04:51;6.60;71.40
75994;DHT22;64680;53.800;9.988;2023-04-25T00:07:17;6.60;72.20
75994;DHT22;64680;53.800;9.988;2023-04-25T00:09:43;6.60;70.90
75994;DHT22;64680;53.800;9.988;2023-04-25T00:12:08;6.60;72.00
75994;DHT22;64680;53.800;9.988;2023-04-25T00:14:34;6.50;69.50
75994;DHT22;64680;53.800;9.988;2023-04-25T00:17:01;6.50;70.80
75994;DHT22;64680;53.800;9.988;2023-04-25T00:19:26;6.50;67.80
75994;DHT22;64680;53.800;9.988;2023-04-25T00:21:54;6.40;67.30
75994;DHT22;64680;53.800;9.988;2023-04-25T00:24:20;6.40;67.00
75994;DHT22;64680;53.800;9.988;2023-04-25T00:26:45;6.30;68.60
75994;DHT22;64680;53.800;9.988;2023-04-25T00:29:11;6.30;67.40
75994;DHT22;64680;53.800;9.988;2023-04-25T00:31:36;6.30;68.00
75994;DHT22;64680;53.800;9.988;2023-04-25T00:34:02;6.20;68.10
75994;DHT22;64680;53.800;9.988;2023-04-25T00:36:28;6.30;67.70
75994;DHT22;64680;53.800;9.988;2023-04-25T00:38:53;6.30;67.70
75994;DHT22;64680;53.800;9.988;2023-04-25T00:41:20;6.20;67.80
75994;DHT22;64680;53.800;9.988;2023-04-25T00:43:46;6.20;68.40
75994;DHT22;64680;53.800;9.988;2023-04-25T00:46:13;6.20;67.70
75994;DHT22;64680;53.800;9.988;2023-04-25T00:48:38;6.10;69.40
75994;DHT22;64680;53.800;9.988;2023-04-25T00:51:04;6.10;71.00
75994;DHT22;64680;53.800;9.988;2023-04-25T00:53:30;6.10;68.90
75994;DHT22;64680;53.800;9.988;2023-04-25T00:55:57;6.10;68.30
75994;DHT22;64680;53.800;9.988;2023-04-25T00:58:23;6.10;67.90
75994;DHT22;64680;53.800;9.988;2023-04-25T01:00:51;6.10;61.80
75994;DHT22;64680;53.800;9.988;2023-04-25T01:03:20;6.10;60.20
75994;DHT22;64680;53.800;9.988;2023-04-25T01:05:47;6.20;56.70
75994;DHT22;64680;53.800;9.988;2023-04-25T01:08:13;6.20;58.00
75994;DHT22;64680;53.800;9.988;2023-04-25T01:10:39;6.10;57.40
75994;DHT22;64680;53.800;9.988;2023-04-25T01:13:06;6.10;56.10
75994;DHT22;64680;53.800;9.988;2023-04-25T01:15:32;6.10;55.50
75994;DHT22;64680;53.800;9.988;2023-04-25T01:17:58;6.00;55.60
75994;DHT22;64680;53.800;9.988;2023-04-25T01:20:26;6.00;52.80
75994;DHT22;64680;53.800;9.988;2023-04-25T01:22:54;5.90;54.00
75994;DHT22;64680;53.800;9.988;2023-04-25T01:25:22;5.90;52.20
75994;DHT22;64680;53.800;9.988;2023-04-25T01:27:48;5.90;52.40
75994;DHT22;64680;53.800;9.988;2023-04-25T01:30:14;5.90;51.60
75994;DHT22;64680;53.800;9.988;2023-04-25T01:32:40;5.90;52.00
75994;DHT22;64680;53.800;9.988;2023-04-25T01:35:08;5.90;49.70
75994;DHT22;64680;53.800;9.988;2023-04-25T01:37:41;5.80;50.80
75994;DHT22;64680;53.800;9.988;2023-04-25T01:40:09;5.70;52.50
75994;DHT22;64680;53.800;9.988;2023-04-25T01:42:41;5.80;49.00
75994;DHT22;64680;53.800;9.988;2023-04-25T01:45:08;5.70;47.10
75994;DHT22;64680;53.800;9.988;2023-04-25T01:47:34;5.70;52.80
75994;DHT22;64680;53.800;9.988;2023-04-25T01:50:06;5.70;51.50
75994;DHT22;64680;53.800;9.988;2023-04-25T01:52:32;5.70;48.70
75994;DHT22;64680;53.800;9.988;2023-04-25T01:55:00;5.70;50.00
75994;DHT22;64680;53.800;9.988;2023-04-25T01:57:26;5.60;49.30
75994;DHT22;64680;53.800;9.988;2023-04-25T01:59:57;5.60;47.70
75994;DHT22;64680;53.800;9.988;2023-04-25T02:02:23;5.60;46.20
75994;DHT22;64680;53.800;9.988;2023-04-25T02:04:49;5.60;47.30
75994;DHT22;64680;53.800;9.988;2023-04-25T02:07:15;5.60;44.90
75994;DHT22;64680;53.800;9.988;2023-04-25T02:09:41;5.60;39.80
75994;DHT22;64680;53.800;9.988;2023-04-25T02:12:09;5.60;41.60
75994;DHT22;64680;53.800;9.988;2023-04-25T02:14:35;5.50;41.10
75994;DHT22;64680;53.800;9.988;2023-04-25T02:17:00;5.50;41.50
75994;DHT22;64680;53.800;9.988;2023-04-25T02:19:26;5.50;43.70
75994;DHT22;64680;53.800;9.988;2023-04-25T02:21:51;5.50;41.00
75994;DHT22;64680;53.800;9.988;2023-04-25T02:24:17;5.40;40.80
75994;DHT22;64680;53.800;9.988;2023-04-25T02:26:42;5.40;41.70
75994;DHT22;64680;53.800;9.988;2023-04-25T02:29:09;5.40;42.50
75994;DHT22;64680;53.800;9.988;2023-04-25T02:31:35;5.30;40.90
75994;DHT22;64680;53.800;9.988;2023-04-25T02:34:01;5.30;41.80
75994;DHT22;64680;53.800;9.988;2023-04-25T02:36:26;5.30;43.30
75994;DHT22;64680;53.800;9.988;2023-04-25T02:38:52;5.20;41.80
75994;DHT22;64680;53.800;9.988;2023-04-25T02:41:18;5.20;42.00
75994;DHT22;64680;53.800;9.988;2023-04-25T02:43:43;5.20;40.00
75994;DHT22;64680;53.800;9.988;2023-04-25T02:46:09;5.20;33.60
75994;DHT22;64680;53.800;9.988;2023-04-25T02:48:35;5.10;35.40
75994;DHT22;64680;53.800;9.988;2023-04-25T02:51:00;5.20;35.70
75994;DHT22;64680;53.800;9.988;2023-04-25T02:53:26;5.10;37.90
75994;DHT22;64680;53.800;9.988;2023-04-25T02:55:51;5.00;37.30
75994;DHT22;64680;53.800;9.988;2023-04-25T02:58:18;4.90;36.50
75994;DHT22;64680;53.800;9.988;2023-04-25T03:00:44;4.80;38.70
75994;DHT22;64680;53.800;9.988;2023-04-25T03:03:10;4.80;39.50
75994;DHT22;64680;53.800;9.988;2023-04-25T03:05:36;4.80;39.80
75994;DHT22;64680;53.800;9.988;2023-04-25T03:08:01;4.80;38.90
75994;DHT22;64680;53.800;9.988;2023-04-25T03:10:27;4.80;39.90
75994;DHT22;64680;53.800;9.988;2023-04-25T03:12:52;4.90;39.30
75994;DHT22;64680;53.800;9.988;2023-04-25T03:15:18;4.90;38.90
75994;DHT22;64680;53.800;9.988;2023-04-25T03:17:44;4.90;36.60
75994;DHT22;64680;53.800;9.988;2023-04-25T03:20:10;4.80;35.00
75994;DHT22;64680;53.800;9.988;2023-04-25T03:22:36;4.70;37.10
75994;DHT22;64680;53.800;9.988;2023-04-25T03:25:01;4.70;37.20
75994;DHT22;64680;53.800;9.988;2023-04-25T03:27:28;4.60;38.30
75994;DHT22;64680;53.800;9.988;2023-04-25T03:29:53;4.50;37.10
75994;DHT22;64680;53.800;9.988;2023-04-25T03:32:19;4.40;38.20
75994;DHT22;64680;53.800;9.988;2023-04-25T03:34:44;4.30;38.60
75994;DHT22;64680;53.800;9.988;2023-04-25T03:37:10;4.30;36.80
75994;DHT22;64680;53.800;9.988;2023-04-25T03:39:36;4.20;38.20
75994;DHT22;64680;53.800;9.988;2023-04-25T03:42:01;4.20;37.50
75994;DHT22;64680;53.800;9.988;2023-04-25T03:44:28;4.10;37.50
75994;DHT22;64680;53.800;9.988;2023-04-25T03:46:53;4.00;39.70
75994;DHT22;64680;53.800;9.988;2023-04-25T03:49:19;4.00;40.60
75994;DHT22;64680;53.800;9.988;2023-04-25T03:51:44;4.00;39.60
75994;DHT22;64680;53.800;9.988;2023-04-25T03:54:10;3.90;39.20
75994;DHT22;64680;53.800;9.988;2023-04-25T03:56:36;4.00;34.00
75994;DHT22;64680;53.800;9.988;2023-04-25T03:59:01;4.10;36.10
75994;DHT22;64680;53.800;9.988;2023-04-25T04:01:30;4.10;34.10
75994;DHT22;64680;53.800;9.988;2023-04-25T04:03:57;4.20;32.70
75994;DHT22;64680;53.800;9.988;2023-04-25T04:06:23;4.10;30.80
75994;DHT22;64680;53.800;9.988;2023-04-25T04:08:49;4.20;30.30
75994;DHT22;64680;53.800;9.988;2023-04-25T04:11:14;4.20;28.20
75994;DHT22;64680;53.800;9.988;2023-04-25T04:13:40;4.30;30.20
75994;DHT22;64680;53.800;9.988;2023-04-25T04:16:05;4.30;31.70
75994;DHT22;64680;53.800;9.988;2023-04-25T04:18:31;4.30;29.70
75994;DHT22;64680;53.800;9.988;2023-04-25T04:20:58;4.30;27.70
75994;DHT22;64680;53.800;9.988;2023-04-25T04:23:24;4.40;30.00
75994;DHT22;64680;53.800;9.988;2023-04-25T04:25:49;4.40;29.40
75994;DHT22;64680;53.800;9.988;2023-04-25T04:28:15;4.50;26.30
75994;DHT22;64680;53.800;9.988;2023-04-25T04:30:42;4.50;22.10
75994;DHT22;64680;53.800;9.988;2023-04-25T04:33:08;4.60;18.10
75994;DHT22;64680;53.800;9.988;2023-04-25T04:35:34;4.60;13.10
75994;DHT22;64680;53.800;9.988;2023-04-25T04:38:00;4.70;10.80
75994;DHT22;64680;53.800;9.988;2023-04-25T04:40:25;4.80;9.10
75994;DHT22;64680;53.800;9.988;2023-04-25T04:42:51;4.70;7.80
75994;DHT22;64680;53.800;9.988;2023-04-25T04:45:18;4.80;5.10
75994;DHT22;64680;53.800;9.988;2023-04-25T04:47:44;4.80;5.80
75994;DHT22;64680;53.800;9.988;2023-04-25T04:50:10;4.80;1.00
75994;DHT22;64680;53.800;9.988;2023-04-25T04:52:36;4.90;1.00
75994;DHT22;64680;53.800;9.988;2023-04-25T04:55:03;5.00;1.00
75994;DHT22;64680;53.800;9.988;2023-04-25T04:57:29;4.90;1.00
75994;DHT22;64680;53.800;9.988;2023-04-25T04:59:55;4.90;1.00
75994;DHT22;64680;53.800;9.988;2023-04-25T05:02:20;5.00;1.00
75994;DHT22;64680;53.800;9.988;2023-04-25T05:04:46;5.00;1.00
75994;DHT22;64680;53.800;9.988;2023-04-25T05:07:12;5.10;1.00
75994;DHT22;64680;53.800;9.988;2023-04-25T05:09:38;5.10;1.00
75994;DHT22;64680;53.800;9.988;2023-04-25T05:12:03;5.10;1.00
75994;DHT22;64680;53.800;9.988;2023-04-25T05:14:29;5.20;1.00
75994;DHT22;64680;53.800;9.988;2023-04-25T05:16:55;5.20;1.00
75994;DHT22;64680;53.800;9.988;2023-04-25T05:19:20;5.00;8.50
75994;DHT22;64680;53.800;9.988;2023-04-25T05:21:46;4.70;16.60
75994;DHT22;64680;53.800;9.988;2023-04-25T05:24:11;4.50;29.50
75994;DHT22;64680;53.800;9.988;2023-04-25T05:26:37;4.30;35.20
75994;DHT22;64680;53.800;9.988;2023-04-25T05:29:03;4.10;36.10
75994;DHT22;64680;53.800;9.988;2023-04-25T05:31:29;4.10;41.10
75994;DHT22;64680;53.800;9.988;2023-04-25T05:33:54;4.10;45.20
75994;DHT22;64680;53.800;9.988;2023-04-25T05:36:20;4.10;47.70
75994;DHT22;64680;53.800;9.988;2023-04-25T05:38:46;4.20;46.50
75994;DHT22;64680;53.800;9.988;2023-04-25T05:41:11;4.30;48.10
75994;DHT22;64680;53.800;9.988;2023-04-25T05:43:37;4.40;44.40
75994;DHT22;64680;53.800;9.988;2023-04-25T05:46:02;4.60;42.30
75994;DHT22;64680;53.800;9.988;2023-04-25T05:48:28;4.70;34.20
75994;DHT22;64680;53.800;9.988;2023-04-25T05:50:53;4.80;30.80
75994;DHT22;64680;53.800;9.988;2023-04-25T05:53:20;4.80;32.20
75994;DHT22;64680;53.800;9.988;2023-04-25T05:55:46;4.90;30.80
75994;DHT22;64680;53.800;9.988;2023-04-25T05:58:12;4.90;25.30
75994;DHT22;64680;53.800;9.988;2023-04-25T06:00:38;4.90;20.90
75994;DHT22;64680;53.800;9.988;2023-04-25T06:03:04;5.00;19.80
75994;DHT22;64680;53.800;9.988;2023-04-25T06:05:30;5.00;19.90
75994;DHT22;64680;53.800;9.988;2023-04-25T06:07:55;5.20;17.60
75994;DHT22;64680;53.800;9.988;2023-04-25T06:10:22;5.30;15.90
75994;DHT22;64680;53.800;9.988;2023-04-25T06:12:48;5.40;16.30
75994;DHT22;64680;53.800;9.988;2023-04-25T06:15:14;5.50;16.00
75994;DHT22;64680;53.800;9.988;2023-04-25T06:17:41;5.50;11.40
75994;DHT22;64680;53.800;9.988;2023-04-25T06:20:07;5.50;13.30
75994;DHT22;64680;53.800;9.988;2023-04-25T06:22:33;5.60;12.20
75994;DHT22;64680;53.800;9.988;2023-04-25T06:24:59;5.60;12.10
75994;DHT22;64680;53.800;9.988;2023-04-25T06:27:25;5.60;12.60
75994;DHT22;64680;53.800;9.988;2023-04-25T06:29:51;5.50;14.90
75994;DHT22;64680;53.800;9.988;2023-04-25T06:32:17;5.50;13.60
75994;DHT22;64680;53.800;9.988;2023-04-25T06:34:43;5.60;16.30
75994;DHT22;64680;53.800;9.988;2023-04-25T06:37:09;5.60;19.40
75994;DHT22;64680;53.800;9.988;2023-04-25T06:39:35;5.70;22.80
75994;DHT22;64680;53.800;9.988;2023-04-25T06:42:00;5.70;12.70
75994;DHT22;64680;53.800;9.988;2023-04-25T06:44:26;5.80;9.50
75994;DHT22;64680;53.800;9.988;2023-04-25T06:46:54;5.90;7.70
75994;DHT22;64680;53.800;9.988;2023-04-25T06:49:20;6.00;4.70
75994;DHT22;64680;53.800;9.988;2023-04-25T06:51:45;6.10;4.00
75994;DHT22;64680;53.800;9.988;2023-04-25T06:54:11;6.20;2.80
75994;DHT22;64680;53.800;9.988;2023-04-25T06:56:37;6.30;1.00
75994;DHT22;64680;53.800;9.988;2023-04-25T06:59:02;6.60;1.00
75994;DHT22;64680;53.800;9.988;2023-04-25T07:01:28;6.60;1.00
75994;DHT22;64680;53.800;9.988;2023-04-25T07:03:54;6.70;1.00
75994;DHT22;64680;53.800;9.988;2023-04-25T07:06:19;6.80;1.00
75994;DHT22;64680;53.800;9.988;2023-04-25T07:08:45;6.70;1.00
75994;DHT22;64680;53.800;9.988;2023-04-25T07:11:11;6.70;1.00
75994;DHT22;64680;53.800;9.988;2023-04-25T07:13:37;6.70;1.00
75994;DHT22;64680;53.800;9.988;2023-04-25T07:16:02;6.80;1.00
75994;DHT22;64680;53.800;9.988;2023-04-25T07:18:28;6.80;1.00
75994;DHT22;64680;53.800;9.988;2023-04-25T07:20:54;6.90;1.00
75994;DHT22;64680;53.800;9.988;2023-04-25T07:23:20;7.20;1.00
75994;DHT22;64680;53.800;9.988;2023-04-25T07:25:46;7.40;1.00
75994;DHT22;64680;53.800;9.988;2023-04-25T07:28:11;7.50;1.00
75994;DHT22;64680;53.800;9.988;2023-04-25T07:30:37;7.50;1.00
75994;DHT22;64680;53.800;9.988;2023-04-25T07:33:03;7.30;1.00
75994;DHT22;64680;53.800;9.988;2023-04-25T07:35:29;7.30;1.00
75994;DHT22;64680;53.800;9.988;2023-04-25T07:37:55;7.30;1.00
75994;DHT22;64680;53.800;9.988;2023-04-25T07:40:21;7.30;1.00
75994;DHT22;64680;53.800;9.988;2023-04-25T07:42:46;7.30;1.00
75994;DHT22;64680;53.800;9.988;2023-04-25T07:45:12;7.50;1.00
75994;DHT22;64680;53.800;9.988;2023-04-25T07:47:37;7.70;1.00
75994;DHT22;64680;53.800;9.988;2023-04-25T07:50:04;8.10;1.00
75994;DHT22;64680;53.800;9.988;2023-04-25T07:52:29;8.50;1.00
75994;DHT22;64680;53.800;9.988;2023-04-25T07:54:55;8.60;1.00
75994;DHT22;64680;53.800;9.988;2023-04-25T07:57:21;8.40;1.00
75994;DHT22;64680;53.800;9.988;2023-04-25T07:59:47;8.40;1.00
75994;DHT22;64680;53.800;9.988;2023-04-25T08:02:12;8.40;1.00
75994;DHT22;64680;53.800;9.988;2023-04-25T08:04:38;8.50;1.00
75994;DHT22;64680;53.800;9.988;2023-04-25T08:07:04;8.40;1.00
75994;DHT22;64680;53.800;9.988;2023-04-25T08:09:30;8.30;1.00
75994;DHT22;64680;53.800;9.988;2023-04-25T08:12:00;8.10;1.00
75994;DHT22;64680;53.800;9.988;2023-04-25T08:14:26;7.40;1.00
75994;DHT22;64680;53.800;9.988;2023-04-25T08:16:51;6.80;1.00
75994;DHT22;64680;53.800;9.988;2023-04-25T08:19:17;6.50;2.70
75994;DHT22;64680;53.800;9.988;2023-04-25T08:21:43;6.50;1.50
75994;DHT22;64680;53.800;9.988;2023-04-25T08:24:08;6.90;3.30
75994;DHT22;64680;53.800;9.988;2023-04-25T08:26:34;8.10;1.00
75994;DHT22;64680;53.800;9.988;2023-04-25T08:29:00;9.50;1.00
75994;DHT22;64680;53.800;9.988;2023-04-25T08:31:25;11.00;1.00
75994;DHT22;64680;53.800;9.988;2023-04-25T08:33:51;12.10;1.00
75994;DHT22;64680;53.800;9.988;2023-04-25T08:36:17;11.20;1.00
75994;DHT22;64680;53.800;9.988;2023-04-25T08:38:44;10.90;1.00
75994;DHT22;64680;53.800;9.988;2023-04-25T08:41:11;10.70;1.00
75994;DHT22;64680;53.800;9.988;2023-04-25T08:43:37;10.40;1.00
75994;DHT22;64680;53.800;9.988;2023-04-25T08:46:03;9.90;1.00
75994;DHT22;64680;53.800;9.988;2023-04-25T08:48:32;9.80;1.00
75994;DHT22;64680;53.800;9.988;2023-04-25T08:50:57;10.00;1.00
75994;DHT22;64680;53.800;9.988;2023-04-25T08:53:31;10.20;1.00
75994;DHT22;64680;53.800;9.988;2023-04-25T08:55:58;10.70;1.00
75994;DHT22;64680;53.800;9.988;2023-04-25T08:58:24;11.00;1.00
75994;DHT22;64680;53.800;9.988;2023-04-25T09:00:51;11.30;1.00
75994;DHT22;64680;53.800;9.988;2023-04-25T09:03:17;10.80;1.00
75994;DHT22;64680;53.800;9.988;2023-04-25T09:05:43;10.20;1.00
75994;DHT22;64680;53.800;9.988;2023-04-25T09:08:09;9.50;1.00
75994;DHT22;64680;53.800;9.988;2023-04-25T09:10:36;9.20;1.00
75994;DHT22;64680;53.800;9.988;2023-04-25T09:13:07;9.00;1.00
75994;DHT22;64680;53.800;9.988;2023-04-25T09:15:51;8.90;1.00
75994;DHT22;64680;53.800;9.988;2023-04-25T09:18:31;8.90;1.00
75994;DHT22;64680;53.800;9.988;2023-04-25T09:21:17;9.80;1.00
75994;DHT22;64680;53.800;9.988;2023-04-25T09:23:48;11.70;1.00
75994;DHT22;64680;53.800;9.988;2023-04-25T09:26:16;13.00;1.00
75994;DHT22;64680;53.800;9.988;2023-04-25T09:28:42;12.50;1.00
75994;DHT22;64680;53.800;9.988;2023-04-25T09:31:10;12.20;1.00
75994;DHT22;64680;53.800;9.988;2023-04-25T09:33:36;12.70;1.00
75994;DHT22;64680;53.800;9.988;2023-04-25T09:36:10;13.00;1.00
75994;DHT22;64680;53.800;9.988;2023-04-25T09:38:45;11.90;1.00
75994;DHT22;64680;53.800;9.988;2023-04-25T09:41:11;11.70;1.00
75994;DHT22;64680;53.800;9.988;2023-04-25T09:43:37;11.30;1.00
75994;DHT22;64680;53.800;9.988;2023-04-25T09:46:08;11.10;1.00
75994;DHT22;64680;53.800;9.988;2023-04-25T09:48:35;11.00;1.00
75994;DHT22;64680;53.800;9.988;2023-04-25T09:51:11;11.30;1.00
75994;DHT22;64680;53.800;9.988;2023-04-25T09:53:41;11.40;1.00
75994;DHT22;64680;53.800;9.988;2023-04-25T09:56:07;11.50;1.00
75994;DHT22;64680;53.800;9.988;2023-04-25T09:58:33;11.50;1.00
75994;DHT22;64680;53.800;9.988;2023-04-25T10:01:07;12.00;1.00
75994;DHT22;64680;53.800;9.988;2023-04-25T10:03:34;11.90;1.00
75994;DHT22;64680;53.800;9.988;2023-04-25T10:06:02;11.60;1.00
75994;DHT22;64680;53.800;9.988;2023-04-25T10:08:33;10.90;1.00
75994;DHT22;64680;53.800;9.988;2023-04-25T10:11:04;10.30;1.00
75994;DHT22;64680;53.800;9.988;2023-04-25T10:13:30;9.60;1.00
75994;DHT22;64680;53.800;9.988;2023-04-25T10:15:58;8.70;1.00
75994;DHT22;64680;53.800;9.988;2023-04-25T10:18:25;7.50;1.00
75994;DHT22;64680;53.800;9.988;2023-04-25T10:20:53;7.00;1.00
75994;DHT22;64680;53.800;9.988;2023-04-25T10:23:20;6.90;1.00
75994;DHT22;64680;53.800;9.988;2023-04-25T10:25:46;7.20;1.00
75994;DHT22;64680;53.800;9.988;2023-04-25T10:28:11;7.60;1.00
75994;DHT22;64680;53.800;9.988;2023-04-25T10:30:37;8.30;1.00
75994;DHT22;64680;53.800;9.988;2023-04-25T10:33:16;9.30;1.00
75994;DHT22;64680;53.800;9.988;2023-04-25T10:35:44;10.40;1.00
75994;DHT22;64680;53.800;9.988;2023-04-25T10:38:11;10.50;1.00
75994;DHT22;64680;53.800;9.988;2023-04-25T10:40:38;9.80;1.00
75994;DHT22;64680;53.800;9.988;2023-04-25T10:46:25;9.10;1.00
75994;DHT22;64680;53.800;9.988;2023-04-25T10:48:53;9.30;1.00
75994;DHT22;64680;53.800;9.988;2023-04-25T10:51:30;9.40;1.00
75994;DHT22;64680;53.800;9.988;2023-04-25T10:54:05;9.30;1.00
75994;DHT22;64680;53.800;9.988;2023-04-25T10:59:17;10.30;1.00
75994;DHT22;64680;53.800;9.988;2023-04-25T11:01:46;10.50;1.00
75994;DHT22;64680;53.800;9.988;2023-04-25T11:04:29;10.50;1.00
75994;DHT22;64680;53.800;9.988;2023-04-25T11:09:45;11.70;1.00
75994;DHT22;64680;53.800;9.988;2023-04-25T11:12:11;12.30;1.00
75994;DHT22;64680;53.800;9.988;2023-04-25T11:14:40;12.50;1.00
75994;DHT22;64680;53.800;9.988;2023-04-25T11:17:06;12.80;1.00
75994;DHT22;64680;53.800;9.988;2023-04-25T11:19:32;12.10;1.00
75994;DHT22;64680;53.800;9.988;2023-04-25T11:21:59;11.40;1.00
75994;DHT22;64680;53.800;9.988;2023-04-25T11:24:30;11.00;1.00
75994;DHT22;64680;53.800;9.988;2023-04-25T11:26:57;10.10;1.00
75994;DHT22;64680;53.800;9.988;2023-04-25T11:29:27;9.50;1.00
75994;DHT22;64680;53.800;9.988;2023-04-25T11:31:53;9.00;1.00
75994;DHT22;64680;53.800;9.988;2023-04-25T11:34:21;8.40;1.00
75994;DHT22;64680;53.800;9.988;2023-04-25T11:36:47;8.00;1.00
75994;DHT22;64680;53.800;9.988;2023-04-25T11:39:13;8.20;1.00
75994;DHT22;64680;53.800;9.988;2023-04-25T11:41:39;8.30;1.00
75994;DHT22;64680;53.800;9.988;2023-04-25T11:44:05;8.10;1.00
75994;DHT22;64680;53.800;9.988;2023-04-25T11:46:33;8.30;1.00
75994;DHT22;64680;53.800;9.988;2023-04-25T11:48:59;8.60;1.00
75994;DHT22;64680;53.800;9.988;2023-04-25T11:51:25;8.90;1.00
75994;DHT22;64680;53.800;9.988;2023-04-25T11:53:51;9.00;1.00
75994;DHT22;64680;53.800;9.988;2023-04-25T11:56:17;9.50;1.00
75994;DHT22;64680;53.800;9.988;2023-04-25T11:59:03;9.60;1.00
75994;DHT22;64680;53.800;9.988;2023-04-25T12:01:33;10.10;1.00
75994;DHT22;64680;53.800;9.988;2023-04-25T12:04:11;10.40;1.00
75994;DHT22;64680;53.800;9.988;2023-04-25T12:06:37;10.40;1.00
75994;DHT22;64680;53.800;9.988;2023-04-25T12:09:08;11.10;1.00
75994;DHT22;64680;53.800;9.988;2023-04-25T12:12:01;10.80;1.00
75994;DHT22;64680;53.800;9.988;2023-04-25T12:14:32;10.30;1.00
75994;DHT22;64680;53.800;9.988;2023-04-25T12:16:59;9.60;1.00
75994;DHT22;64680;53.800;9.988;2023-04-25T12:19:26;9.50;1.00
75994;DHT22;64680;53.800;9.988;2023-04-25T12:21:56;9.60;1.00
75994;DHT22;64680;53.800;9.988;2023-04-25T12:24:24;9.70;1.00
75994;DHT22;64680;53.800;9.988;2023-04-25T12:29:28;9.00;1.00
75994;DHT22;64680;53.800;9.988;2023-04-25T12:31:55;8.80;1.00
75994;DHT22;64680;53.800;9.988;2023-04-25T12:34:22;8.70;1.00
75994;DHT22;64680;53.800;9.988;2023-04-25T12:36:49;9.40;1.00
75994;DHT22;64680;53.800;9.988;2023-04-25T12:39:19;10.20;1.00
75994;DHT22;64680;53.800;9.988;2023-04-25T12:41:45;10.10;1.00
75994;DHT22;64680;53.800;9.988;2023-04-25T12:44:12;9.60;1.00
75994;DHT22;64680;53.800;9.988;2023-04-25T12:46:37;9.20;1.00
75994;DHT22;64680;53.800;9.988;2023-04-25T12:49:04;8.50;1.00
75994;DHT22;64680;53.800;9.988;2023-04-25T12:51:30;8.30;1.00
75994;DHT22;64680;53.800;9.988;2023-04-25T12:53:55;8.80;1.00
75994;DHT22;64680;53.800;9.988;2023-04-25T12:56:21;9.50;1.00
75994;DHT22;64680;53.800;9.988;2023-04-25T12:58:46;9.90;1.00
75994;DHT22;64680;53.800;9.988;2023-04-25T13:01:14;10.70;1.00
75994;DHT22;64680;53.800;9.988;2023-04-25T13:03:40;11.20;1.00
75994;DHT22;64680;53.800;9.988;2023-04-25T13:06:06;11.30;1.00
75994;DHT22;64680;53.800;9.988;2023-04-25T13:08:32;12.20;1.00
75994;DHT22;64680;53.800;9.988;2023-04-25T13:10:57;12.20;1.00
75994;DHT22;64680;53.800;9.988;2023-04-25T13:13:23;12.50;1.00
75994;DHT22;64680;53.800;9.988;2023-04-25T13:15:49;12.30;1.00
75994;DHT22;64680;53.800;9.988;2023-04-25T13:18:15;12.20;1.00
75994;DHT22;64680;53.800;9.988;2023-04-25T13:20:40;11.60;1.00
75994;DHT22;64680;53.800;9.988;2023-04-25T13:23:06;11.10;1.00
75994;DHT22;64680;53.800;9.988;2023-04-25T13:25:31;10.80;1.00
75994;DHT22;64680;53.800;9.988;2023-04-25T13:27:57;10.70;1.00
75994;DHT22;64680;53.800;9.988;2023-04-25T13:30:22;10.80;1.00
75994;DHT22;64680;53.800;9.988;2023-04-25T13:32:48;11.10;1.00
75994;DHT22;64680;53.800;9.988;2023-04-25T13:35:14;10.90;1.00
75994;DHT22;64680;53.800;9.988;2023-04-25T13:37:40;10.70;1.00
75994;DHT22;64680;53.800;9.988;2023-04-25T13:40:08;10.40;1.00
75994;DHT22;64680;53.800;9.988;2023-04-25T13:42:35;10.50;1.00
75994;DHT22;64680;53.800;9.988;2023-04-25T13:45:02;10.30;1.00
75994;DHT22;64680;53.800;9.988;2023-04-25T13:47:29;9.90;1.00
75994;DHT22;64680;53.800;9.988;2023-04-25T13:49:55;9.70;1.00
75994;DHT22;64680;53.800;9.988;2023-04-25T13:52:21;9.80;1.00
75994;DHT22;64680;53.800;9.988;2023-04-25T13:54:47;9.80;1.00
75994;DHT22;64680;53.800;9.988;2023-04-25T13:57:12;10.00;1.00
75994;DHT22;64680;53.800;9.988;2023-04-25T13:59:39;10.30;1.00
75994;DHT22;64680;53.800;9.988;2023-04-25T14:02:06;10.40;1.00
75994;DHT22;64680;53.800;9.988;2023-04-25T14:04:32;10.30;1.00
75994;DHT22;64680;53.800;9.988;2023-04-25T14:06:58;10.00;1.00
75994;DHT22;64680;53.800;9.988;2023-04-25T14:09:24;10.00;1.00
75994;DHT22;64680;53.800;9.988;2023-04-25T14:11:51;10.10;1.00
75994;DHT22;64680;53.800;9.988;2023-04-25T14:14:18;10.60;1.00
75994;DHT22;64680;53.800;9.988;2023-04-25T14:16:44;11.10;1.00
75994;DHT22;64680;53.800;9.988;2023-04-25T14:19:10;11.50;1.00
75994;DHT22;64680;53.800;9.988;2023-04-25T14:21:36;11.40;1.00
75994;DHT22;64680;53.800;9.988;2023-04-25T14:24:03;11.80;1.00
75994;DHT22;64680;53.800;9.988;2023-04-25T14:26:30;11.80;1.00
75994;DHT22;64680;53.800;9.988;2023-04-25T14:28:55;11.30;1.00
75994;DHT22;64680;53.800;9.988;2023-04-25T14:31:21;11.20;1.00
75994;DHT22;64680;53.800;9.988;2023-04-25T14:33:46;10.80;1.00
75994;DHT22;64680;53.800;9.988;2023-04-25T14:36:12;10.40;1.00
75994;DHT22;64680;53.800;9.988;2023-04-25T14:38:38;9.20;1.00
75994;DHT22;64680;53.800;9.988;2023-04-25T14:41:03;8.10;1.00
75994;DHT22;64680;53.800;9.988;2023-04-25T14:43:29;7.40;1.00
75994;DHT22;64680;53.800;9.988;2023-04-25T14:45:54;6.90;1.00
75994;DHT22;64680;53.800;9.988;2023-04-25T14:48:20;6.70;2.40
75994;DHT22;64680;53.800;9.988;2023-04-25T14:50:46;6.60;4.10
75994;DHT22;64680;53.800;9.988;2023-04-25T14:53:12;6.70;4.00
75994;DHT22;64680;53.800;9.988;2023-04-25T14:55:38;7.00;1.00
75994;DHT22;64680;53.800;9.988;2023-04-25T14:58:04;7.40;1.00
75994;DHT22;64680;53.800;9.988;2023-04-25T15:00:30;7.60;1.00
75994;DHT22;64680;53.800;9.988;2023-04-25T15:02:57;8.00;1.00
75994;DHT22;64680;53.800;9.988;2023-04-25T15:05:23;8.20;1.00
75994;DHT22;64680;53.800;9.988;2023-04-25T15:07:48;8.40;1.00
75994;DHT22;64680;53.800;9.988;2023-04-25T15:10:14;8.00;1.00
75994;DHT22;64680;53.800;9.988;2023-04-25T15:12:42;8.00;1.00
75994;DHT22;64680;53.800;9.988;2023-04-25T15:15:08;8.30;1.00
75994;DHT22;64680;53.800;9.988;2023-04-25T15:17:38;8.40;1.00
75994;DHT22;64680;53.800;9.988;2023-04-25T15:20:06;8.40;1.00
75994;DHT22;64680;53.800;9.988;2023-04-25T15:22:32;8.90;1.00
75994;DHT22;64680;53.800;9.988;2023-04-25T15:24:57;9.60;1.00
75994;DHT22;64680;53.800;9.988;2023-04-25T15:27:23;9.90;1.00
75994;DHT22;64680;53.800;9.988;2023-04-25T15:29:49;10.20;1.00
75994;DHT22;64680;53.800;9.988;2023-04-25T15:32:14;10.30;1.00
75994;DHT22;64680;53.800;9.988;2023-04-25T15:34:40;10.00;1.00
75994;DHT22;64680;53.800;9.988;2023-04-25T15:37:06;10.00;1.00
75994;DHT22;64680;53.800;9.988;2023-04-25T15:39:31;10.00;1.00
75994;DHT22;64680;53.800;9.988;2023-04-25T15:41:57;9.60;1.00
75994;DHT22;64680;53.800;9.988;2023-04-25T15:44:24;9.40;1.00
75994;DHT22;64680;53.800;9.988;2023-04-25T15:46:49;9.30;1.00
75994;DHT22;64680;53.800;9.988;2023-04-25T15:49:15;9.60;1.00
75994;DHT22;64680;53.800;9.988;2023-04-25T15:51:41;9.80;1.00
75994;DHT22;64680;53.800;9.988;2023-04-25T15:54:06;9.50;1.00
75994;DHT22;64680;53.800;9.988;2023-04-25T15:56:32;9.40;1.00
75994;DHT22;64680;53.800;9.988;2023-04-25T15:58:58;9.20;1.00
75994;DHT22;64680;53.800;9.988;2023-04-25T16:01:23;9.10;1.00